sensor_id;sensor_type;location;lat;lon;timestamp;pressure;altitude;pressure_sealevel;temperature;humidity
42411;BME280;28056;51.112;0.984;2023-04-20T00:04:53;101335.01;;;8.42;60.67
42411;BME280;28056;51.112;0.984;2023-04-20T00:07:19;101332.72;;;8.10;61.40
42411;BME280;28056;51.112;0.984;2023-04-20T00:09:46;101327.39;;;8.34;61.71
42411;BME280;28056;51.112;0.984;2023-04-20T00:12:14;101328.81;;;7.03;64.69
42411;BME280;28056;51.112;0.984;2023-04-20T00:14:41;101327.85;;;7.93;63.35
42411;BME280;28056;51.112;0.984;2023-04-20T00:17:08;101325.19;;;7.77;63.53
42411;BME280;28056;51.112;0.984;2023-04-20T00:19:35;101322.19;;;7.42;63.48
42411;BME280;28056;51.112;0.984;2023-04-20T00:22:03;101323.28;;;7.87;62.64
42411;BME280;28056;51.112;0.984;2023-04-20T00:24:30;101324.08;;;8.58;60.68
42411;BME280;28056;51.112;0.984;2023-04-20T00:26:57;101321.02;;;8.33;61.51
42411;BME280;28056;51.112;0.984;2023-04-20T00:29:25;101317.64;;;8.08;61.33
42411;BME280;28056;51.112;0.984;2023-04-20T00:31:52;101317.28;;;8.11;61.55
42411;BME280;28056;51.112;0.984;2023-04-20T00:34:19;101312.55;;;7.66;62.39
42411;BME280;28056;51.112;0.984;2023-04-20T00:36:47;101312.92;;;7.93;61.32
42411;BME280;28056;51.112;0.984;2023-04-20T00:39:15;101309.43;;;8.03;61.00
42411;BME280;28056;51.112;0.984;2023-04-20T00:41:42;101308.36;;;8.54;60.49
42411;BME280;28056;51.112;0.984;2023-04-20T00:44:09;101305.98;;;8.20;60.58
42411;BME280;28056;51.112;0.984;2023-04-20T00:46:36;101303.29;;;8.65;59.02
42411;BME280;28056;51.112;0.984;2023-04-20T00:49:03;101303.16;;;8.25;59.02
42411;BME280;28056;51.112;0.984;2023-04-20T00:51:31;101300.15;;;7.98;59.88
42411;BME280;28056;51.112;0.984;2023-04-20T00:53:59;101298.32;;;7.86;60.75
42411;BME280;28056;51.112;0.984;2023-04-20T00:56:27;101297.09;;;8.49;58.75
42411;BME280;28056;51.112;0.984;2023-04-20T00:58:55;101298.72;;;8.26;59.83
42411;BME280;28056;51.112;0.984;2023-04-20T01:01:22;101293.01;;;7.75;60.26
42411;BME280;28056;51.112;0.984;2023-04-20T01:03:49;101289.48;;;7.68;60.45
42411;BME280;28056;51.112;0.984;2023-04-20T01:06:17;101287.34;;;7.62;60.62
42411;BME280;28056;51.112;0.984;2023-04-20T01:08:46;101288.57;;;7.91;59.89
42411;BME280;28056;51.112;0.984;2023-04-20T01:11:14;101282.30;;;8.25;58.72
42411;BME280;28056;51.112;0.984;2023-04-20T01:13:42;101280.36;;;8.56;57.65
42411;BME280;28056;51.112;0.984;2023-04-20T01:16:10;101281.92;;;8.99;56.28
42411;BME280;28056;51.112;0.984;2023-04-20T01:18:42;101275.30;;;8.63;56.96
42411;BME280;28056;51.112;0.984;2023-04-20T01:21:10;101271.63;;;8.15;57.10
42411;BME280;28056;51.112;0.984;2023-04-20T01:23:38;101274.74;;;8.97;55.97
42411;BME280;28056;51.112;0.984;2023-04-20T01:26:06;101270.99;;;8.72;55.70
42411;BME280;28056;51.112;0.984;2023-04-20T01:28:34;101268.52;;;8.52;55.48
42411;BME280;28056;51.112;0.984;2023-04-20T01:31:02;101264.00;;;8.60;56.37
42411;BME280;28056;51.112;0.984;2023-04-20T01:33:30;101261.67;;;8.47;55.44
42411;BME280;28056;51.112;0.984;2023-04-20T01:35:57;101261.50;;;8.94;55.21
42411;BME280;28056;51.112;0.984;2023-04-20T01:38:25;101262.97;;;8.79;55.29
42411;BME280;28056;51.112;0.984;2023-04-20T01:40:54;101257.93;;;8.69;55.51
42411;BME280;28056;51.112;0.984;2023-04-20T01:43:21;101259.61;;;8.64;54.93
42411;BME280;28056;51.112;0.984;2023-04-20T01:45:48;101255.50;;;8.06;55.96
42411;BME280;28056;51.112;0.984;2023-04-20T01:48:16;101258.00;;;9.06;54.32
42411;BME280;28056;51.112;0.984;2023-04-20T01:50:43;101258.84;;;8.16;55.13
42411;BME280;28056;51.112;0.984;2023-04-20T01:53:10;101257.57;;;9.00;53.53
42411;BME280;28056;51.112;0.984;2023-04-20T01:55:37;101253.63;;;8.74;53.42
42411;BME280;28056;51.112;0.984;2023-04-20T01:58:04;101255.74;;;9.03;53.38
42411;BME280;28056;51.112;0.984;2023-04-20T02:00:31;101253.30;;;8.60;53.50
42411;BME280;28056;51.112;0.984;2023-04-20T02:02:59;101253.95;;;8.59;53.43
42411;BME280;28056;51.112;0.984;2023-04-20T02:05:26;101258.49;;;8.70;52.32
42411;BME280;28056;51.112;0.984;2023-04-20T02:07:53;101256.29;;;8.53;51.80
42411;BME280;28056;51.112;0.984;2023-04-20T02:10:21;101254.11;;;8.79;51.43
42411;BME280;28056;51.112;0.984;2023-04-20T02:12:49;101251.98;;;8.55;51.06
42411;BME280;28056;51.112;0.984;2023-04-20T02:15:17;101253.87;;;8.71;50.57
42411;BME280;28056;51.112;0.984;2023-04-20T02:17:44;101255.10;;;9.06;49.45
42411;BME280;28056;51.112;0.984;2023-04-20T02:20:11;101255.10;;;8.84;49.23
42411;BME280;28056;51.112;0.984;2023-04-20T02:22:38;101254.24;;;8.12;49.80
42411;BME280;28056;51.112;0.984;2023-04-20T02:25:06;101252.44;;;8.82;48.48
42411;BME280;28056;51.112;0.984;2023-04-20T02:27:35;101251.88;;;9.17;47.62
42411;BME280;28056;51.112;0.984;2023-04-20T02:30:03;101250.17;;;8.98;48.47
42411;BME280;28056;51.112;0.984;2023-04-20T02:32:30;101251.62;;;8.93;48.05
42411;BME280;28056;51.112;0.984;2023-04-20T02:34:57;101251.52;;;8.46;48.39
42411;BME280;28056;51.112;0.984;2023-04-20T02:37:24;101250.56;;;8.62;47.35
42411;BME280;28056;51.112;0.984;2023-04-20T02:39:52;101250.01;;;8.62;48.01
42411;BME280;28056;51.112;0.984;2023-04-20T02:42:19;101247.36;;;9.27;46.63
42411;BME280;28056;51.112;0.984;2023-04-20T02:44:47;101248.01;;;8.94;47.38
42411;BME280;28056;51.112;0.984;2023-04-20T02:47:14;101246.35;;;9.20;46.82
42411;BME280;28056;51.112;0.984;2023-04-20T02:49:43;101246.78;;;8.42;47.43
42411;BME280;28056;51.112;0.984;2023-04-20T02:52:10;101245.80;;;9.25;46.75
42411;BME280;28056;51.112;0.984;2023-04-20T02:54:37;101244.11;;;8.96;47.45
42411;BME280;28056;51.112;0.984;2023-04-20T02:57:04;101245.47;;;9.27;46.26
42411;BME280;28056;51.112;0.984;2023-04-20T02:59:31;101249.91;;;8.81;47.10
42411;BME280;28056;51.112;0.984;2023-04-20T03:01:58;101250.81;;;8.62;47.27
42411;BME280;28056;51.112;0.984;2023-04-20T03:04:26;101246.74;;;8.09;48.59
42411;BME280;28056;51.112;0.984;2023-04-20T03:06:53;101251.76;;;8.75;47.30
42411;BME280;28056;51.112;0.984;2023-04-20T03:09:21;101250.48;;;8.71;47.67
42411;BME280;28056;51.112;0.984;2023-04-20T03:11:49;101253.06;;;8.39;47.60
42411;BME280;28056;51.112;0.984;2023-04-20T03:14:16;101249.90;;;9.03;46.38
42411;BME280;28056;51.112;0.984;2023-04-20T03:16:44;101250.90;;;8.56;47.23
42411;BME280;28056;51.112;0.984;2023-04-20T03:19:18;101248.42;;;8.82;47.95
42411;BME280;28056;51.112;0.984;2023-04-20T03:21:46;101252.56;;;7.83;49.69
42411;BME280;28056;51.112;0.984;2023-04-20T03:24:13;101247.53;;;8.42;48.51
42411;BME280;28056;51.112;0.984;2023-04-20T03:26:40;101248.68;;;8.21;49.30
42411;BME280;28056;51.112;0.984;2023-04-20T03:29:08;101245.91;;;8.40;48.50
42411;BME280;28056;51.112;0.984;2023-04-20T03:31:35;101250.81;;;7.88;49.57
42411;BME280;28056;51.112;0.984;2023-04-20T03:34:03;101247.80;;;8.36;48.85
42411;BME280;28056;51.112;0.984;2023-04-20T03:36:30;101252.61;;;7.98;49.59
42411;BME280;28056;51.112;0.984;2023-04-20T03:38:57;101252.53;;;7.22;50.69
42411;BME280;28056;51.112;0.984;2023-04-20T03:41:24;101251.53;;;7.53;50.35
42411;BME280;28056;51.112;0.984;2023-04-20T03:43:51;101252.61;;;6.93;50.80
42411;BME280;28056;51.112;0.984;2023-04-20T03:46:18;101257.03;;;7.41;50.16
42411;BME280;28056;51.112;0.984;2023-04-20T03:48:45;101257.56;;;7.89;49.32
42411;BME280;28056;51.112;0.984;2023-04-20T03:51:12;101255.16;;;7.29;50.74
42411;BME280;28056;51.112;0.984;2023-04-20T03:53:40;101255.58;;;8.00;49.19
42411;BME280;28056;51.112;0.984;2023-04-20T03:56:07;101254.89;;;8.08;48.89
42411;BME280;28056;51.112;0.984;2023-04-20T03:58:34;101256.72;;;7.72;48.83
42411;BME280;28056;51.112;0.984;2023-04-20T04:01:03;101254.23;;;7.45;49.02
42411;BME280;28056;51.112;0.984;2023-04-20T04:03:31;101251.17;;;7.39;49.96
42411;BME280;28056;51.112;0.984;2023-04-20T04:05:59;101253.19;;;7.53;49.94
42411;BME280;28056;51.112;0.984;2023-04-20T04:08:26;101252.04;;;7.13;50.06
42411;BME280;28056;51.112;0.984;2023-04-20T04:10:54;101252.62;;;7.73;49.42
42411;BME280;28056;51.112;0.984;2023-04-20T04:13:21;101252.86;;;6.79;51.36
42411;BME280;28056;51.112;0.984;2023-04-20T04:15:48;101254.38;;;6.99;50.62
42411;BME280;28056;51.112;0.984;2023-04-20T04:18:15;101255.30;;;7.24;50.62
42411;BME280;28056;51.112;0.984;2023-04-20T04:20:42;101254.02;;;7.42;49.60
42411;BME280;28056;51.112;0.984;2023-04-20T04:23:09;101246.55;;;7.44;49.08
42411;BME280;28056;51.112;0.984;2023-04-20T04:25:37;101246.49;;;7.37;49.52
42411;BME280;28056;51.112;0.984;2023-04-20T04:28:04;101248.17;;;7.52;49.06
42411;BME280;28056;51.112;0.984;2023-04-20T04:30:31;101249.80;;;7.13;49.26
42411;BME280;28056;51.112;0.984;2023-04-20T04:32:59;101254.73;;;7.54;48.89
42411;BME280;28056;51.112;0.984;2023-04-20T04:35:27;101253.32;;;6.93;50.36
42411;BME280;28056;51.112;0.984;2023-04-20T04:37:54;101254.06;;;7.74;49.05
42411;BME280;28056;51.112;0.984;2023-04-20T04:40:22;101254.07;;;7.19;49.92
42411;BME280;28056;51.112;0.984;2023-04-20T04:42:49;101251.84;;;7.17;49.30
42411;BME280;28056;51.112;0.984;2023-04-20T04:45:16;101253.14;;;7.68;48.70
42411;BME280;28056;51.112;0.984;2023-04-20T04:47:43;101254.60;;;7.31;48.86
42411;BME280;28056;51.112;0.984;2023-04-20T04:50:11;101253.82;;;6.86;48.86
42411;BME280;28056;51.112;0.984;2023-04-20T04:52:39;101256.70;;;7.81;48.37
42411;BME280;28056;51.112;0.984;2023-04-20T04:55:07;101253.22;;;7.54;49.20
42411;BME280;28056;51.112;0.984;2023-04-20T04:57:34;101255.83;;;7.10;50.23
42411;BME280;28056;51.112;0.984;2023-04-20T05:00:02;101256.88;;;6.95;50.18
42411;BME280;28056;51.112;0.984;2023-04-20T05:02:30;101252.88;;;6.71;50.44
42411;BME280;28056;51.112;0.984;2023-04-20T05:04:58;101253.41;;;7.39;49.34
42411;BME280;28056;51.112;0.984;2023-04-20T05:07:26;101250.68;;;7.63;49.13
42411;BME280;28056;51.112;0.984;2023-04-20T05:09:53;101252.62;;;7.35;49.91
42411;BME280;28056;51.112;0.984;2023-04-20T05:12:20;101250.13;;;6.80;50.70
42411;BME280;28056;51.112;0.984;2023-04-20T05:14:47;101253.82;;;7.14;50.22
42411;BME280;28056;51.112;0.984;2023-04-20T05:17:14;101253.23;;;6.82;49.92
42411;BME280;28056;51.112;0.984;2023-04-20T05:19:42;101253.56;;;7.11;49.69
42411;BME280;28056;51.112;0.984;2023-04-20T05:22:09;101254.07;;;7.32;49.68
42411;BME280;28056;51.112;0.984;2023-04-20T05:24:36;101257.28;;;7.68;48.51
42411;BME280;28056;51.112;0.984;2023-04-20T05:27:04;101260.26;;;7.36;48.80
42411;BME280;28056;51.112;0.984;2023-04-20T05:29:31;101261.77;;;6.93;50.19
42411;BME280;28056;51.112;0.984;2023-04-20T05:31:58;101263.95;;;6.89;50.29
42411;BME280;28056;51.112;0.984;2023-04-20T05:34:25;101266.32;;;7.03;49.63
42411;BME280;28056;51.112;0.984;2023-04-20T05:36:52;101269.79;;;6.91;50.27
42411;BME280;28056;51.112;0.984;2023-04-20T05:39:21;101270.66;;;7.16;49.37
42411;BME280;28056;51.112;0.984;2023-04-20T05:41:48;101277.97;;;6.29;51.85
42411;BME280;28056;51.112;0.984;2023-04-20T05:44:16;101273.12;;;7.23;50.24
42411;BME280;28056;51.112;0.984;2023-04-20T05:46:44;101275.34;;;7.15;50.04
42411;BME280;28056;51.112;0.984;2023-04-20T05:49:11;101279.14;;;6.52;51.13
42411;BME280;28056;51.112;0.984;2023-04-20T05:51:38;101278.47;;;7.34;49.50
42411;BME280;28056;51.112;0.984;2023-04-20T05:54:06;101279.15;;;6.71;49.92
42411;BME280;28056;51.112;0.984;2023-04-20T05:56:35;101280.37;;;7.53;48.38
42411;BME280;28056;51.112;0.984;2023-04-20T05:59:02;101281.26;;;7.20;49.31
42411;BME280;28056;51.112;0.984;2023-04-20T06:01:30;101279.64;;;7.35;49.24
42411;BME280;28056;51.112;0.984;2023-04-20T06:03:57;101280.01;;;6.69;50.57
42411;BME280;28056;51.112;0.984;2023-04-20T06:06:24;101279.89;;;6.80;50.44
42411;BME280;28056;51.112;0.984;2023-04-20T06:08:52;101282.08;;;7.40;49.48
42411;BME280;28056;51.112;0.984;2023-04-20T06:11:19;101284.55;;;7.54;49.50
42411;BME280;28056;51.112;0.984;2023-04-20T06:13:46;101283.00;;;7.09;50.32
42411;BME280;28056;51.112;0.984;2023-04-20T06:16:13;101283.66;;;7.24;50.52
42411;BME280;28056;51.112;0.984;2023-04-20T06:18:41;101281.96;;;8.28;48.94
42411;BME280;28056;51.112;0.984;2023-04-20T06:21:09;101281.48;;;7.73;48.48
42411;BME280;28056;51.112;0.984;2023-04-20T06:23:37;101282.14;;;7.65;49.41
42411;BME280;28056;51.112;0.984;2023-04-20T06:26:04;101283.37;;;7.68;49.23
42411;BME280;28056;51.112;0.984;2023-04-20T06:28:31;101284.63;;;7.60;49.58
42411;BME280;28056;51.112;0.984;2023-04-20T06:30:58;101287.09;;;7.42;49.62
42411;BME280;28056;51.112;0.984;2023-04-20T06:33:25;101287.19;;;7.08;50.43
42411;BME280;28056;51.112;0.984;2023-04-20T06:35:52;101285.78;;;7.60;50.18
42411;BME280;28056;51.112;0.984;2023-04-20T06:38:19;101284.40;;;7.72;49.47
42411;BME280;28056;51.112;0.984;2023-04-20T06:40:46;101285.49;;;8.23;48.84
42411;BME280;28056;51.112;0.984;2023-04-20T06:43:14;101284.56;;;7.67;49.49
42411;BME280;28056;51.112;0.984;2023-04-20T06:45:41;101281.05;;;8.78;47.98
42411;BME280;28056;51.112;0.984;2023-04-20T06:48:08;101282.57;;;8.08;48.85
42411;BME280;28056;51.112;0.984;2023-04-20T06:50:35;101275.99;;;8.75;47.73
42411;BME280;28056;51.112;0.984;2023-04-20T06:53:03;101275.82;;;8.87;47.70
42411;BME280;28056;51.112;0.984;2023-04-20T06:55:31;101270.16;;;8.41;47.85
42411;BME280;28056;51.112;0.984;2023-04-20T06:57:58;101273.57;;;9.11;47.11
42411;BME280;28056;51.112;0.984;2023-04-20T07:00:25;101271.59;;;8.15;48.18
42411;BME280;28056;51.112;0.984;2023-04-20T07:02:52;101271.49;;;9.40;47.07
42411;BME280;28056;51.112;0.984;2023-04-20T07:05:20;101269.56;;;8.55;48.39
42411;BME280;28056;51.112;0.984;2023-04-20T07:07:47;101273.67;;;9.06;47.50
42411;BME280;28056;51.112;0.984;2023-04-20T07:10:15;101274.56;;;9.23;47.29
42411;BME280;28056;51.112;0.984;2023-04-20T07:12:43;101270.24;;;9.24;47.25
42411;BME280;28056;51.112;0.984;2023-04-20T07:15:11;101268.63;;;9.01;47.50
42411;BME280;28056;51.112;0.984;2023-04-20T07:17:38;101267.45;;;9.84;46.89
42411;BME280;28056;51.112;0.984;2023-04-20T07:20:08;101270.14;;;10.11;45.83
42411;BME280;28056;51.112;0.984;2023-04-20T07:22:36;101269.86;;;9.37;46.64
42411;BME280;28056;51.112;0.984;2023-04-20T07:25:06;101264.77;;;9.32;47.35
42411;BME280;28056;51.112;0.984;2023-04-20T07:27:35;101264.68;;;8.64;48.51
42411;BME280;28056;51.112;0.984;2023-04-20T07:30:03;101263.70;;;8.95;48.25
42411;BME280;28056;51.112;0.984;2023-04-20T07:32:31;101264.34;;;9.08;49.11
42411;BME280;28056;51.112;0.984;2023-04-20T07:34:59;101254.94;;;8.90;50.61
42411;BME280;28056;51.112;0.984;2023-04-20T07:37:27;101259.80;;;9.13;49.70
42411;BME280;28056;51.112;0.984;2023-04-20T07:39:54;101255.72;;;8.88;50.17
42411;BME280;28056;51.112;0.984;2023-04-20T07:42:21;101252.46;;;8.87;50.61
42411;BME280;28056;51.112;0.984;2023-04-20T07:44:49;101247.38;;;9.03;49.04
42411;BME280;28056;51.112;0.984;2023-04-20T07:47:17;101244.46;;;9.25;47.88
42411;BME280;28056;51.112;0.984;2023-04-20T07:49:45;101245.18;;;9.10;47.52
42411;BME280;28056;51.112;0.984;2023-04-20T07:52:13;101238.80;;;9.59;47.00
42411;BME280;28056;51.112;0.984;2023-04-20T07:54:41;101241.58;;;9.19;47.30
42411;BME280;28056;51.112;0.984;2023-04-20T07:57:08;101237.61;;;9.52;47.77
42411;BME280;28056;51.112;0.984;2023-04-20T07:59:36;101235.22;;;10.32;47.81
42411;BME280;28056;51.112;0.984;2023-04-20T08:02:03;101227.47;;;10.47;46.80
42411;BME280;28056;51.112;0.984;2023-04-20T08:04:31;101226.50;;;10.54;46.61
42411;BME280;28056;51.112;0.984;2023-04-20T08:06:58;101221.32;;;10.72;46.99
42411;BME280;28056;51.112;0.984;2023-04-20T08:09:26;101227.91;;;10.37;46.39
42411;BME280;28056;51.112;0.984;2023-04-20T08:11:54;101215.33;;;10.99;45.77
42411;BME280;28056;51.112;0.984;2023-04-20T08:14:21;101213.82;;;10.40;44.63
42411;BME280;28056;51.112;0.984;2023-04-20T08:16:49;101211.17;;;11.10;45.18
42411;BME280;28056;51.112;0.984;2023-04-20T08:19:17;101207.14;;;11.28;43.93
42411;BME280;28056;51.112;0.984;2023-04-20T08:21:45;101205.69;;;11.34;44.44
42411;BME280;28056;51.112;0.984;2023-04-20T08:24:12;101198.73;;;11.21;44.32
42411;BME280;28056;51.112;0.984;2023-04-20T08:26:42;101192.05;;;11.79;42.68
42411;BME280;28056;51.112;0.984;2023-04-20T08:29:09;101190.86;;;11.60;42.27
42411;BME280;28056;51.112;0.984;2023-04-20T08:31:37;101192.97;;;10.85;42.36
42411;BME280;28056;51.112;0.984;2023-04-20T08:34:04;101194.48;;;12.23;41.83
42411;BME280;28056;51.112;0.984;2023-04-20T08:36:32;101188.71;;;11.84;42.93
42411;BME280;28056;51.112;0.984;2023-04-20T08:39:06;101187.97;;;11.69;43.53
42411;BME280;28056;51.112;0.984;2023-04-20T08:41:34;101186.70;;;11.41;44.51
42411;BME280;28056;51.112;0.984;2023-04-20T08:44:01;101190.12;;;11.02;46.02
42411;BME280;28056;51.112;0.984;2023-04-20T08:46:29;101189.64;;;11.93;46.27
42411;BME280;28056;51.112;0.984;2023-04-20T08:48:57;101187.05;;;12.07;46.70
42411;BME280;28056;51.112;0.984;2023-04-20T08:51:26;101180.73;;;12.03;47.66
42411;BME280;28056;51.112;0.984;2023-04-20T08:53:54;101182.36;;;12.05;45.43
42411;BME280;28056;51.112;0.984;2023-04-20T08:56:33;101178.39;;;11.99;45.98
42411;BME280;28056;51.112;0.984;2023-04-20T08:59:01;101176.59;;;12.30;45.82
42411;BME280;28056;51.112;0.984;2023-04-20T09:01:28;101171.79;;;11.89;47.98
42411;BME280;28056;51.112;0.984;2023-04-20T09:03:57;101172.86;;;12.47;44.94
42411;BME280;28056;51.112;0.984;2023-04-20T09:06:24;101167.65;;;12.63;46.14
42411;BME280;28056;51.112;0.984;2023-04-20T09:08:51;101163.86;;;12.55;47.45
42411;BME280;28056;51.112;0.984;2023-04-20T09:11:21;101164.14;;;13.51;45.82
42411;BME280;28056;51.112;0.984;2023-04-20T09:13:58;101156.65;;;12.85;44.86
42411;BME280;28056;51.112;0.984;2023-04-20T09:16:25;101149.82;;;13.33;43.26
42411;BME280;28056;51.112;0.984;2023-04-20T09:18:53;101153.69;;;12.09;44.27
42411;BME280;28056;51.112;0.984;2023-04-20T09:21:23;101143.75;;;12.43;44.88
42411;BME280;28056;51.112;0.984;2023-04-20T09:23:58;101150.46;;;12.81;44.85
42411;BME280;28056;51.112;0.984;2023-04-20T09:26:29;101139.31;;;13.88;45.37
42411;BME280;28056;51.112;0.984;2023-04-20T09:28:58;101142.95;;;13.61;44.82
42411;BME280;28056;51.112;0.984;2023-04-20T09:31:25;101137.46;;;13.02;43.20
42411;BME280;28056;51.112;0.984;2023-04-20T09:33:58;101134.96;;;13.78;42.10
42411;BME280;28056;51.112;0.984;2023-04-20T09:36:36;101123.53;;;12.93;42.47
42411;BME280;28056;51.112;0.984;2023-04-20T09:39:08;101129.77;;;13.73;39.93
42411;BME280;28056;51.112;0.984;2023-04-20T09:41:37;101119.91;;;12.14;42.48
42411;BME280;28056;51.112;0.984;2023-04-20T09:44:05;101118.14;;;12.00;43.98
42411;BME280;28056;51.112;0.984;2023-04-20T09:46:36;101119.39;;;12.20;43.38
42411;BME280;28056;51.112;0.984;2023-04-20T09:49:05;101113.37;;;11.68;44.37
42411;BME280;28056;51.112;0.984;2023-04-20T09:51:35;101114.00;;;11.95;45.23
42411;BME280;28056;51.112;0.984;2023-04-20T09:54:04;101118.60;;;12.38;47.43
42411;BME280;28056;51.112;0.984;2023-04-20T09:56:33;101111.34;;;12.44;45.25
42411;BME280;28056;51.112;0.984;2023-04-20T09:59:01;101116.91;;;12.59;44.54
42411;BME280;28056;51.112;0.984;2023-04-20T10:01:29;101107.55;;;12.60;45.88
42411;BME280;28056;51.112;0.984;2023-04-20T10:03:58;101102.11;;;12.17;45.16
42411;BME280;28056;51.112;0.984;2023-04-20T10:06:27;101101.37;;;12.72;43.67
42411;BME280;28056;51.112;0.984;2023-04-20T10:08:55;101106.44;;;11.34;46.03
42411;BME280;28056;51.112;0.984;2023-04-20T10:11:25;101100.24;;;12.27;44.33
42411;BME280;28056;51.112;0.984;2023-04-20T10:13:53;101095.12;;;11.80;45.25
42411;BME280;28056;51.112;0.984;2023-04-20T10:16:21;101085.18;;;12.09;45.67
42411;BME280;28056;51.112;0.984;2023-04-20T10:18:57;101088.09;;;12.58;45.59
42411;BME280;28056;51.112;0.984;2023-04-20T10:21:24;101083.47;;;12.51;44.73
42411;BME280;28056;51.112;0.984;2023-04-20T10:23:52;101078.28;;;12.48;43.40
42411;BME280;28056;51.112;0.984;2023-04-20T10:26:19;101078.07;;;12.38;45.55
42411;BME280;28056;51.112;0.984;2023-04-20T10:28:47;101079.69;;;12.60;44.94
42411;BME280;28056;51.112;0.984;2023-04-20T10:31:14;101075.11;;;12.89;44.33
42411;BME280;28056;51.112;0.984;2023-04-20T10:33:51;101071.61;;;13.39;42.49
42411;BME280;28056;51.112;0.984;2023-04-20T10:36:25;101062.82;;;14.02;41.18
42411;BME280;28056;51.112;0.984;2023-04-20T10:38:52;101061.18;;;14.25;41.97
42411;BME280;28056;51.112;0.984;2023-04-20T10:41:20;101068.16;;;13.62;41.90
42411;BME280;28056;51.112;0.984;2023-04-20T10:43:47;101060.65;;;14.25;40.95
42411;BME280;28056;51.112;0.984;2023-04-20T10:46:16;101060.65;;;14.86;39.74
42411;BME280;28056;51.112;0.984;2023-04-20T10:48:53;101048.59;;;14.50;37.75
42411;BME280;28056;51.112;0.984;2023-04-20T10:51:21;101056.42;;;14.43;37.78
42411;BME280;28056;51.112;0.984;2023-04-20T10:54:07;101053.08;;;14.46;36.94
42411;BME280;28056;51.112;0.984;2023-04-20T10:56:38;101043.41;;;13.69;37.33
42411;BME280;28056;51.112;0.984;2023-04-20T10:59:06;101048.27;;;13.81;37.39
42411;BME280;28056;51.112;0.984;2023-04-20T11:01:33;101043.05;;;14.31;38.10
42411;BME280;28056;51.112;0.984;2023-04-20T11:04:01;101046.28;;;15.06;37.62
42411;BME280;28056;51.112;0.984;2023-04-20T11:06:29;101034.66;;;15.02;37.15
42411;BME280;28056;51.112;0.984;2023-04-20T11:08:56;101034.24;;;13.85;37.63
42411;BME280;28056;51.112;0.984;2023-04-20T11:11:26;101027.53;;;14.51;38.58
42411;BME280;28056;51.112;0.984;2023-04-20T11:14:05;101024.83;;;14.70;38.73
42411;BME280;28056;51.112;0.984;2023-04-20T11:16:33;101027.55;;;15.25;36.73
42411;BME280;28056;51.112;0.984;2023-04-20T11:19:00;101021.22;;;14.54;35.84
42411;BME280;28056;51.112;0.984;2023-04-20T11:21:35;101011.96;;;15.13;38.64
42411;BME280;28056;51.112;0.984;2023-04-20T11:24:03;101012.88;;;14.55;37.66
42411;BME280;28056;51.112;0.984;2023-04-20T11:26:36;101015.49;;;14.91;35.65
42411;BME280;28056;51.112;0.984;2023-04-20T11:29:04;101010.73;;;12.94;38.01
42411;BME280;28056;51.112;0.984;2023-04-20T11:31:31;101007.75;;;13.42;37.19
42411;BME280;28056;51.112;0.984;2023-04-20T11:33:59;100996.53;;;14.19;38.34
42411;BME280;28056;51.112;0.984;2023-04-20T11:36:27;100987.83;;;13.40;38.45
42411;BME280;28056;51.112;0.984;2023-04-20T11:39:05;100991.94;;;13.75;36.36
42411;BME280;28056;51.112;0.984;2023-04-20T11:41:32;100989.79;;;13.43;39.40
42411;BME280;28056;51.112;0.984;2023-04-20T11:44:00;100989.47;;;13.86;40.90
42411;BME280;28056;51.112;0.984;2023-04-20T11:46:28;100979.75;;;14.65;36.97
42411;BME280;28056;51.112;0.984;2023-04-20T11:49:00;100979.90;;;15.08;37.61
42411;BME280;28056;51.112;0.984;2023-04-20T11:51:27;100972.54;;;15.17;37.74
42411;BME280;28056;51.112;0.984;2023-04-20T11:53:54;100981.39;;;14.88;37.28
42411;BME280;28056;51.112;0.984;2023-04-20T11:56:22;100974.95;;;13.83;37.01
42411;BME280;28056;51.112;0.984;2023-04-20T11:58:50;100961.21;;;14.48;37.06
42411;BME280;28056;51.112;0.984;2023-04-20T12:01:17;100968.61;;;15.01;37.31
42411;BME280;28056;51.112;0.984;2023-04-20T12:03:45;100968.39;;;14.51;36.86
42411;BME280;28056;51.112;0.984;2023-04-20T12:06:13;100964.46;;;14.30;37.63
42411;BME280;28056;51.112;0.984;2023-04-20T12:08:40;100956.37;;;13.86;37.62
42411;BME280;28056;51.112;0.984;2023-04-20T12:11:07;100958.46;;;13.56;37.71
42411;BME280;28056;51.112;0.984;2023-04-20T12:13:35;100948.88;;;14.70;39.19
42411;BME280;28056;51.112;0.984;2023-04-20T12:16:03;100939.98;;;15.02;39.69
42411;BME280;28056;51.112;0.984;2023-04-20T12:18:30;100933.81;;;14.35;38.92
42411;BME280;28056;51.112;0.984;2023-04-20T12:20:57;100930.25;;;14.44;37.47
42411;BME280;28056;51.112;0.984;2023-04-20T12:23:25;100930.56;;;13.82;39.48
42411;BME280;28056;51.112;0.984;2023-04-20T12:25:53;100916.39;;;14.18;39.80
42411;BME280;28056;51.112;0.984;2023-04-20T12:28:20;100910.48;;;15.40;38.85
42411;BME280;28056;51.112;0.984;2023-04-20T12:30:48;100905.83;;;15.41;37.61
42411;BME280;28056;51.112;0.984;2023-04-20T12:33:16;100914.18;;;15.98;33.76
42411;BME280;28056;51.112;0.984;2023-04-20T12:35:43;100914.08;;;16.28;37.54
42411;BME280;28056;51.112;0.984;2023-04-20T12:38:11;100900.99;;;15.41;34.69
42411;BME280;28056;51.112;0.984;2023-04-20T12:40:38;100896.48;;;15.59;34.78
42411;BME280;28056;51.112;0.984;2023-04-20T12:43:06;100901.59;;;15.57;33.95
42411;BME280;28056;51.112;0.984;2023-04-20T12:45:34;100902.90;;;15.53;32.68
42411;BME280;28056;51.112;0.984;2023-04-20T12:48:01;100914.78;;;15.96;33.42
42411;BME280;28056;51.112;0.984;2023-04-20T12:50:29;100907.81;;;15.94;35.57
42411;BME280;28056;51.112;0.984;2023-04-20T12:52:56;100915.86;;;15.84;34.67
42411;BME280;28056;51.112;0.984;2023-04-20T12:55:25;100915.52;;;14.16;36.83
42411;BME280;28056;51.112;0.984;2023-04-20T12:57:52;100920.43;;;14.52;38.81
42411;BME280;28056;51.112;0.984;2023-04-20T13:00:20;100910.94;;;14.28;39.29
42411;BME280;28056;51.112;0.984;2023-04-20T13:02:49;100907.50;;;13.89;40.43